createdAt,value
2019-04-25T14:19:06.890Z,100274.77
2019-04-25T14:21:36.496Z,100271.05
2019-04-25T14:24:05.656Z,100258.20
2019-04-25T14:26:34.877Z,100254.58
2019-04-25T14:29:04.280Z,100251.02
2019-04-25T14:31:43.219Z,100252.86
2019-04-25T14:34:05.116Z,100245.02
2019-04-25T14:36:34.571Z,100251.88
2019-04-25T14:39:04.693Z,100255.41
2019-04-25T14:41:33.969Z,100260.73
2019-04-25T14:44:03.125Z,100247.61
2019-04-25T14:46:32.322Z,100248.30
2019-04-25T14:49:01.474Z,100235.02
2019-04-25T14:51:30.715Z,100249.36
2019-04-25T14:54:01.487Z,100235.64
2019-04-25T14:57:07.853Z,100238.72
2019-04-25T14:59:37.009Z,100241.09
2019-04-25T15:02:06.424Z,100247.00
2019-04-25T15:04:37.243Z,100241.84
2019-04-25T15:07:07.563Z,100229.75
2019-04-25T15:09:38.421Z,100229.11
2019-04-25T15:12:07.905Z,100227.52
2019-04-25T15:14:37.497Z,100233.83
2019-04-25T15:17:06.975Z,100236.22
2019-04-25T15:19:36.180Z,100239.12
2019-04-25T15:22:05.371Z,100240.91
2019-04-25T15:24:34.895Z,100237.73
2019-04-25T15:27:04.087Z,100241.45
2019-04-25T15:29:33.589Z,100240.84
2019-04-25T15:32:03.538Z,100242.10
2019-04-25T15:34:41.436Z,100244.95
2019-04-25T15:37:30.441Z,100248.42
2019-04-25T15:40:09.836Z,100252.03
2019-04-25T15:42:57.992Z,100248.09
2019-04-25T15:45:46.122Z,100255.28
2019-04-25T15:48:15.383Z,100267.58
2019-04-25T15:50:45.573Z,100269.67
2019-04-25T15:53:15.024Z,100268.04
2019-04-25T15:55:44.290Z,100265.98
2019-04-25T15:58:13.457Z,100267.65
2019-04-25T16:00:42.643Z,100272.48
2019-04-25T16:03:13.112Z,100264.03
2019-04-25T16:05:41.554Z,100268.48
2019-04-25T16:08:09.836Z,100272.83
2019-04-25T16:10:39.077Z,100263.00
2019-04-25T16:13:08.555Z,100271.71
2019-04-25T16:15:37.776Z,100268.95
2019-04-25T16:18:08.162Z,100269.97
2019-04-25T16:20:37.389Z,100263.81
2019-04-25T16:23:06.979Z,100267.13
2019-04-25T16:25:36.540Z,100270.52
2019-04-25T16:28:05.712Z,100284.72
2019-04-25T16:30:35.026Z,100301.34
2019-04-25T16:33:06.065Z,100305.69
2019-04-25T16:35:35.495Z,100315.95
2019-04-25T16:38:05.876Z,100317.23
2019-04-25T16:40:35.079Z,100321.55
2019-04-25T16:43:06.105Z,100322.41
2019-04-25T16:45:37.736Z,100326.97
2019-04-25T16:48:07.085Z,100335.13
2019-04-25T16:50:36.529Z,100336.08
2019-04-25T16:53:05.760Z,100330.26
2019-04-25T16:55:35.178Z,100332.11
2019-04-25T16:58:04.611Z,100331.21
2019-04-25T17:00:46.647Z,100344.40
2019-04-25T17:03:16.406Z,100347.05
2019-04-25T17:05:45.575Z,100345.44
2019-04-25T17:08:14.794Z,100345.76
2019-04-25T17:10:44.055Z,100348.54
2019-04-25T17:13:13.224Z,100353.00
2019-04-25T17:16:00.128Z,100345.22
2019-04-25T17:18:36.067Z,100342.40
2019-04-25T17:21:07.663Z,100350.17
2019-04-25T17:23:37.049Z,100348.63
2019-04-25T17:26:06.781Z,100352.13
2019-04-25T17:28:39.204Z,100348.98
2019-04-25T17:31:22.059Z,100350.74
2019-04-25T17:34:13.007Z,100344.30
2019-04-25T17:36:51.844Z,100341.17
2019-04-25T17:39:46.084Z,100343.03
2019-04-25T17:42:15.301Z,100343.86
2019-04-25T17:44:44.510Z,100342.33
2019-04-25T17:47:14.816Z,100348.23
2019-04-25T17:49:44.446Z,100353.64
2019-04-25T17:52:13.679Z,100352.55
2019-04-25T17:54:44.146Z,100354.59
2019-04-25T17:57:13.691Z,100363.13
2019-04-25T17:59:43.442Z,100365.61
2019-04-25T18:02:13.928Z,100369.50
2019-04-25T18:04:43.215Z,100370.63
2019-04-25T18:07:12.642Z,100377.65
2019-04-25T18:09:42.276Z,100377.34
2019-04-25T18:12:11.437Z,100381.61
2019-04-25T18:14:40.968Z,100389.64
2019-04-25T18:17:10.209Z,100395.41
2019-04-25T18:19:43.651Z,100394.98
2019-04-25T18:22:37.882Z,100398.01
2019-04-25T18:25:24.557Z,100398.30
2019-04-25T18:27:58.805Z,100400.05
2019-04-25T18:30:28.031Z,100392.44
2019-04-25T18:33:13.543Z,100395.63
2019-04-25T18:35:44.012Z,100398.41
2019-04-25T18:38:28.392Z,100399.08
2019-04-25T18:41:22.278Z,100412.14
2019-04-25T18:43:56.553Z,100413.77
2019-04-25T18:46:35.906Z,100419.38
2019-04-25T18:49:06.134Z,100415.41
2019-04-25T18:51:36.296Z,100412.33
2019-04-25T18:54:22.955Z,100413.80
2019-04-25T18:57:11.139Z,100420.16
2019-04-25T18:59:59.659Z,100417.27
2019-04-25T19:02:44.511Z,100416.07
2019-04-25T19:05:45.090Z,100412.94
2019-04-25T19:08:14.656Z,100408.52
2019-04-25T19:10:45.017Z,100419.70
2019-04-25T19:13:14.325Z,100428.11
2019-04-25T19:15:43.603Z,100437.77
2019-04-25T19:18:12.886Z,100436.56
2019-04-25T19:20:42.253Z,100447.45
2019-04-25T19:23:11.768Z,100432.20
2019-04-25T19:25:41.608Z,100408.80
2019-04-25T19:28:10.873Z,100423.95
2019-04-25T19:30:41.089Z,100440.94
2019-04-25T19:33:10.407Z,100453.44
2019-04-25T19:35:41.707Z,100455.92
2019-04-25T19:38:11.077Z,100451.30
2019-04-25T19:41:02.233Z,100457.89
2019-04-25T19:43:56.436Z,100468.07
2019-04-25T19:46:38.528Z,100478.45
2019-04-25T19:49:08.346Z,100482.88
2019-04-25T19:51:37.645Z,100497.10
2019-04-25T19:54:07.137Z,100500.80
2019-04-25T19:56:36.476Z,100505.80
2019-04-25T19:59:05.823Z,100520.85
2019-04-25T20:01:35.025Z,100516.91
2019-04-25T20:04:23.276Z,100519.70
2019-04-25T20:07:10.071Z,100514.89
2019-04-25T20:10:02.429Z,100539.74
2019-04-25T20:12:42.915Z,100544.47
2019-04-25T20:15:13.722Z,100548.13
2019-04-25T20:17:43.315Z,100561.52
2019-04-25T20:20:13.937Z,100563.95
2019-04-25T20:22:43.807Z,100562.31
2019-04-25T20:25:14.107Z,100580.89
2019-04-25T20:27:44.259Z,100578.97
2019-04-25T20:30:14.794Z,100583.23
2019-04-25T20:32:44.755Z,100557.53
2019-04-25T20:35:15.068Z,100575.27
2019-04-25T20:37:44.930Z,100569.83
2019-04-25T20:40:15.196Z,100581.68
2019-04-25T20:42:44.414Z,100574.30
2019-04-25T20:45:14.339Z,100560.30
2019-04-25T20:47:43.614Z,100550.11
2019-04-25T20:50:12.861Z,100544.67
2019-04-25T20:52:42.049Z,100545.22
2019-04-25T20:55:11.361Z,100542.95
2019-04-25T20:57:40.592Z,100547.50
2019-04-25T21:00:10.113Z,100535.73
2019-04-25T21:02:39.482Z,100546.55
2019-04-25T21:05:08.772Z,100556.71
2019-04-25T21:07:38.094Z,100554.08
2019-04-25T21:10:07.466Z,100553.60
2019-04-25T21:12:37.276Z,100561.11
2019-04-25T21:15:32.358Z,100558.67
2019-04-25T21:18:09.186Z,100561.48
2019-04-25T21:20:38.760Z,100564.38
2019-04-25T21:23:09.459Z,100568.67
2019-04-25T21:25:38.775Z,100565.41
2019-04-25T21:28:08.682Z,100559.80
2019-04-25T21:30:37.968Z,100550.75
2019-04-25T21:33:07.161Z,100557.30
2019-04-25T21:35:37.632Z,100556.23
2019-04-25T21:38:06.828Z,100544.52
2019-04-25T21:41:02.340Z,100543.90
2019-04-25T21:43:35.021Z,100549.77
2019-04-25T21:46:04.618Z,100547.72
2019-04-25T21:48:34.102Z,100530.88
2019-04-25T21:51:22.727Z,100531.34
2019-04-25T21:53:52.829Z,100528.83
2019-04-25T21:56:22.395Z,100535.70
2019-04-25T21:58:51.729Z,100550.59
2019-04-25T22:01:23.609Z,100552.55
2019-04-25T22:03:54.336Z,100555.29
2019-04-25T22:06:23.996Z,100551.11
2019-04-25T22:08:54.283Z,100553.53
2019-04-25T22:11:24.235Z,100546.83
2019-04-25T22:13:53.757Z,100551.50
2019-04-25T22:16:24.133Z,100543.13
2019-04-25T22:18:53.496Z,100550.70
2019-04-25T22:21:23.413Z,100560.38
2019-04-25T22:24:03.323Z,100571.02
2019-04-25T22:26:23.832Z,100570.19
2019-04-25T22:28:53.406Z,100563.30
2019-04-25T22:31:27.665Z,100559.56
2019-04-25T22:34:21.985Z,100569.11
2019-04-25T22:36:51.505Z,100569.70
2019-04-25T22:39:20.655Z,100566.13
2019-04-25T22:41:51.576Z,100562.42
2019-04-25T22:44:22.246Z,100559.80
2019-04-25T22:46:51.680Z,100556.25
2019-04-25T22:49:20.829Z,100551.48
2019-04-25T22:51:50.038Z,100548.73
2019-04-25T22:54:19.513Z,100541.66
2019-04-25T22:56:48.684Z,100548.27
2019-04-25T22:59:18.039Z,100556.94
2019-04-25T23:02:15.015Z,100554.55
2019-04-25T23:05:12.923Z,100554.67
2019-04-25T23:07:36.105Z,100554.78
2019-04-25T23:10:06.241Z,100550.73
2019-04-25T23:12:36.226Z,100561.03
2019-04-25T23:15:06.743Z,100554.44
2019-04-25T23:17:35.962Z,100559.44
2019-04-25T23:20:05.797Z,100567.91
2019-04-25T23:22:36.007Z,100573.38
2019-04-25T23:25:11.996Z,100575.67
2019-04-25T23:27:59.031Z,100586.41
2019-04-25T23:30:37.983Z,100594.64
2019-04-25T23:33:08.437Z,100586.26
2019-04-25T23:35:39.086Z,100577.34
2019-04-25T23:38:10.790Z,100566.13
2019-04-25T23:40:39.657Z,100577.41
2019-04-25T23:43:11.742Z,100583.36
2019-04-25T23:45:40.939Z,100579.77
2019-04-25T23:48:10.581Z,100580.97
2019-04-25T23:50:40.924Z,100585.28
2019-04-25T23:53:10.731Z,100584.69
2019-04-25T23:55:40.518Z,100578.64
2019-04-25T23:58:09.856Z,100586.13
